EDT,Max TemperatureF,Mean TemperatureF,Min TemperatureF,Max Dew PointF,MeanDew PointF,Min DewpointF,Max Humidity, Mean Humidity, Min Humidity, Max Sea Level PressureIn, Mean Sea Level PressureIn, Min Sea Level PressureIn, Max VisibilityMiles, Mean VisibilityMiles, Min VisibilityMiles, Max Wind SpeedMPH, Mean Wind SpeedMPH, Max Gust SpeedMPH,PrecipitationIn, CloudCover, Events, WindDirDegrees
2012-9-1,76,74,71,74,72,70,100,94,89,30.07,30.04,29.96,10,8,0,9,5,,0.96,5,Fog-Rain,119
2012-9-2,79,74,70,75,72,70,100,93,83,29.96,29.88,29.84,10,10,5,15,10,20,0.48,7,Rain,82
2012-9-3,84,76,69,73,71,70,100,92,71,29.91,29.88,29.85,10,9,6,10,7,,0.01,7,,73
2012-9-4,84,75,66,78,70,66,100,96,66,29.91,29.88,29.84,10,4,0,7,1,,0.00,2,Fog,358
2012-9-5,79,73,67,74,69,66,100,91,73,29.89,29.86,29.81,10,8,1,23,4,36,0.33,3,Rain-Thunderstorm,199
2012-9-6,87,74,62,70,66,62,100,83,49,29.94,29.90,29.86,10,10,7,9,5,,0.00,1,,273
2012-9-7,75,69,63,71,65,59,100,91,73,29.94,29.81,29.71,10,8,0,36,8,46,1.27,6,Fog-Rain-Thunderstorm,47
2012-9-8,72,62,54,66,57,48,100,87,44,29.90,29.79,29.71,10,10,9,20,11,30,0.01,6,Rain,322
2012-9-9,72,63,54,56,53,50,94,73,52,30.13,29.99,29.88,10,10,10,12,6,,0.00,4,,360
2012-9-10,76,62,49,54,51,48,100,69,40,30.24,30.18,30.13,10,10,4,7,4,,0.00,0,,117
2012-9-11,79,66,53,55,53,50,89,66,41,30.24,30.19,30.14,10,10,10,14,7,,0.00,0,,179
2012-9-12,82,68,54,60,56,51,89,67,43,30.25,30.20,30.16,10,10,10,18,8,18,0.00,1,,188
2012-9-13,82,73,63,63,60,57,89,69,45,30.27,30.22,30.17,10,10,10,17,8,17,0.00,7,,215
2012-9-14,71,62,55,59,54,46,100,81,42,30.33,30.28,30.22,10,9,2,14,8,20,0.29,5,Rain,7
2012-9-15,75,62,48,52,48,44,93,62,33,30.34,30.26,30.17,10,10,10,10,2,,0.00,0,,242
2012-9-16,77,63,49,54,49,46,92,62,34,30.17,30.10,30.03,10,10,9,8,3,,0.00,0,,189
2012-9-17,74,63,53,64,58,49,96,79,66,30.02,29.90,29.74,10,10,10,10,4,,0.00,4,,208
2012-9-18,64,54,43,63,55,34,97,85,37,30.04,29.76,29.68,10,10,10,20,9,29,0.00,6,,318
2012-9-19,69,54,38,42,38,36,89,57,29,30.14,30.07,29.99,10,10,10,16,8,21,0.00,0,,214
2012-9-20,75,64,50,51,45,38,77,55,31,30.00,29.93,29.88,10,10,10,16,12,17,0.01,3,Rain,233
2012-9-21,68,56,45,50,44,37,96,64,32,29.97,29.88,29.78,10,10,5,17,6,,0.10,4,Rain-Thunderstorm,181
2012-9-22,56,50,41,52,46,32,100,90,40,30.17,29.88,29.78,10,5,0,30,7,37,0.00,3,Fog,255
2012-9-23,61,48,37,43,36,31,95,66,35,30.27,30.22,30.17,10,10,10,18,6,22,0.00,1,,305
2012-9-24,66,51,36,39,35,31,87,58,27,30.26,30.17,30.01,10,10,10,16,6,24,0.00,0,,210
2012-9-25,70,61,52,62,54,40,97,80,56,30.00,29.93,29.89,10,10,7,16,9,,0.00,5,Rain,198
2012-9-26,68,64,59,65,62,54,100,94,82,30.11,29.99,29.90,10,8,2,14,9,,0.07,7,Rain-Thunderstorm,229
2012-9-27,71,62,53,60,56,48,100,85,63,30.17,30.13,30.10,10,7,1,10,6,,0.00,5,,18
2012-9-28,68,60,52,59,56,46,100,91,46,30.13,30.11,30.06,10,5,0,8,4,,0.00,6,Fog,55
2012-9-29,73,60,46,52,46,43,100,73,35,30.12,30.03,29.96,10,8,3,10,3,,0.00,0,,325
2012-9-30,68,56,45,48,44,41,100,71,40,29.96,29.93,29.90,10,10,4,13,5,,0.00,0,,33